« Back
NWS Peachtree City, Ga » Text Product » AHN Terminal Aerodrome Forecast


Printer-friendly Version
Current Version              Previous Versions:   1  2  3  4  5  6  7  8  9  

Terminal Aerodrome Forecast

326
FTAK31 PAJN 160500
TAFAHN
TAF
PAHN 160540Z 1606/1706 VRB03KT P6SM BKN080 OVC110
     FM161300 32003KT P6SM SCT020 BKN080
     FM161800 29009KT P6SM BKN070 OVC100
     FM170300 31005KT P6SM BKN080
      AMD LTD TO CLD VIS AND WIND=

USA.gov is the U.S. government's official web portal to all federal, state and local government web resources and services.